Time;durP1;ratioP1;P1;durP2;ratioP2;P2;SDS_P1;SDS_P2;PMS_P1;PMS_P2;Temp;Humidity;BMP_temperature;BMP_pressure;BME280_temperature;BME280_humidity;BME280_pressure;Samples;Min_cycle;Max_cycle;Signal;HPM_P1;HPM_P2
2021/09/04 00:00:26;;;;;;;36.17;13.80;;;;;;;13.34;100.00;102109.56;4997124;28;20069;-69
2021/09/04 00:02:54;;;;;;;30.80;13.15;;;;;;;13.32;100.00;102121.25;4999414;28;20058;-69
2021/09/04 00:05:22;;;;;;;31.58;13.55;;;;;;;13.24;100.00;102110.66;4998804;28;20054;-69
2021/09/04 00:07:49;;;;;;;35.15;14.65;;;;;;;13.20;100.00;102117.91;5000240;28;20233;-69
2021/09/04 00:10:18;;;;;;;31.13;13.57;;;;;;;13.15;100.00;102117.13;5002940;28;20077;-69
2021/09/04 00:12:46;;;;;;;31.73;14.00;;;;;;;13.19;100.00;102110.75;5000757;28;20054;-69
2021/09/04 00:15:14;;;;;;;27.75;13.38;;;;;;;13.18;100.00;102121.53;4986995;28;20054;-69
2021/09/04 00:17:43;;;;;;;31.75;14.60;;;;;;;13.12;100.00;102114.50;4963454;28;20098;-69
2021/09/04 00:20:12;;;;;;;30.98;13.95;;;;;;;13.11;100.00;102114.53;4961416;28;20097;-65
2021/09/04 00:22:40;;;;;;;34.33;14.93;;;;;;;13.05;100.00;102119.09;4967402;28;20055;-65
2021/09/04 00:25:08;;;;;;;38.83;14.35;;;;;;;13.03;100.00;102115.59;4961362;28;20102;-65
2021/09/04 00:27:38;;;;;;;31.15;14.65;;;;;;;12.99;100.00;102110.31;4957170;28;20062;-65
2021/09/04 00:30:06;;;;;;;33.22;14.45;;;;;;;12.97;100.00;102106.81;4958719;28;20990;-70
2021/09/04 00:32:34;;;;;;;33.88;14.38;;;;;;;12.99;100.00;102103.19;4959021;28;20069;-69
2021/09/04 00:35:02;;;;;;;34.25;14.05;;;;;;;12.93;100.00;102111.34;4965330;28;20225;-69
2021/09/04 00:37:34;;;;;;;31.25;13.18;;;;;;;12.93;100.00;102103.31;4954034;28;20513;-69
2021/09/04 00:40:02;;;;;;;33.33;15.18;;;;;;;12.86;100.00;102101.69;4959178;28;20532;-69
2021/09/04 00:42:30;;;;;;;32.50;14.20;;;;;;;12.82;100.00;102106.22;4954837;28;20536;-69
2021/09/04 00:44:59;;;;;;;34.67;14.07;;;;;;;12.83;100.00;102102.63;4953757;28;20983;-69
2021/09/04 00:47:27;;;;;;;31.95;14.02;;;;;;;12.79;100.00;102097.38;4968218;28;20046;-65
2021/09/04 00:49:55;;;;;;;29.90;13.30;;;;;;;12.78;100.00;102099.16;4976175;28;20517;-65
2021/09/04 00:52:23;;;;;;;34.92;14.82;;;;;;;12.74;100.00;102099.28;4962706;28;20062;-65
2021/09/04 00:54:53;;;;;;;29.83;13.60;;;;;;;12.74;100.00;102093.91;4961851;28;20097;-67
2021/09/04 00:57:21;;;;;;;35.00;14.40;;;;;;;12.70;100.00;102085.03;4960931;28;20133;-66
2021/09/04 00:59:49;;;;;;;34.97;14.48;;;;;;;12.73;100.00;102089.47;4969894;28;20081;-66
2021/09/04 01:02:18;;;;;;;31.60;15.18;;;;;;;12.71;100.00;102079.66;4978654;28;20170;-66
2021/09/04 01:04:46;;;;;;;33.60;13.98;;;;;;;12.63;100.00;102084.31;4977654;28;20376;-70
2021/09/04 01:07:14;;;;;;;32.30;13.82;;;;;;;12.65;100.00;102084.25;4981297;28;20157;-69
2021/09/04 01:09:43;;;;;;;33.25;13.93;;;;;;;12.59;100.00;102079.06;4979839;28;20058;-69
2021/09/04 01:12:11;;;;;;;36.15;14.80;;;;;;;12.60;100.00;102083.47;4976431;28;20370;-66
2021/09/04 01:14:39;;;;;;;36.15;15.27;;;;;;;12.53;100.00;102080.03;4981841;28;20212;-66
2021/09/04 01:17:07;;;;;;;34.72;14.63;;;;;;;12.55;100.00;102077.34;4982159;28;20085;-66
2021/09/04 01:19:36;;;;;;;33.80;14.00;;;;;;;12.54;100.00;102083.63;4979813;28;20521;-66
2021/09/04 01:22:05;;;;;;;31.85;14.13;;;;;;;12.47;100.00;102078.38;4981663;28;20054;-66
2021/09/04 01:24:32;;;;;;;32.95;13.98;;;;;;;12.49;100.00;102079.22;4983106;28;20105;-66
2021/09/04 01:27:02;;;;;;;32.78;14.95;;;;;;;12.47;100.00;102081.06;4982359;28;20077;-66
2021/09/04 01:29:30;;;;;;;32.47;13.80;;;;;;;12.46;100.00;102075.72;4960118;28;20058;-66
2021/09/04 01:31:57;;;;;;;33.13;13.98;;;;;;;12.44;100.00;102075.75;4961786;28;20079;-66
2021/09/04 01:34:25;;;;;;;35.22;14.43;;;;;;;12.46;100.00;102071.28;4972974;28;20082;-65
2021/09/04 01:36:53;;;;;;;33.65;14.63;;;;;;;12.39;100.00;102068.75;4973344;28;20050;-66
2021/09/04 01:39:20;;;;;;;35.92;14.60;;;;;;;12.39;100.00;102069.63;4971610;28;20707;-66
2021/09/04 01:41:50;;;;;;;31.40;14.15;;;;;;;12.38;100.00;102070.53;4979143;28;20051;-66
2021/09/04 01:44:19;;;;;;;34.08;13.63;;;;;;;12.32;100.00;102073.34;4972213;28;20054;-66
2021/09/04 01:46:47;;;;;;;32.08;12.63;;;;;;;12.35;100.00;102069.72;4980043;28;20050;-66
2021/09/04 01:49:15;;;;;;;33.00;14.05;;;;;;;12.31;100.00;102074.25;4981216;28;20062;-66
2021/09/04 01:51:42;;;;;;;32.70;13.95;;;;;;;12.30;100.00;102076.03;4979710;28;20054;-68
2021/09/04 01:54:10;;;;;;;31.30;12.88;;;;;;;12.25;100.00;102075.25;4977129;28;20567;-66
2021/09/04 01:56:38;;;;;;;33.55;12.73;;;;;;;12.25;100.00;102080.59;4978255;28;20050;-66
2021/09/04 01:59:06;;;;;;;34.58;13.93;;;;;;;12.22;100.00;102077.09;4974643;28;20181;-66
2021/09/04 02:01:35;;;;;;;30.85;13.30;;;;;;;12.19;100.00;102074.47;4978718;28;20150;-66
2021/09/04 02:04:03;;;;;;;29.75;12.73;;;;;;;12.19;100.00;102072.72;4981770;28;20050;-66
2021/09/04 02:06:32;;;;;;;29.48;12.10;;;;;;;12.15;100.00;102071.84;4976549;28;20113;-70
2021/09/04 02:09:00;;;;;;;27.90;12.27;;;;;;;12.13;100.00;102073.69;4974754;28;20046;-69
2021/09/04 02:11:27;;;;;;;31.60;12.55;;;;;;;12.11;100.00;102072.84;4977188;28;20050;-69
2021/09/04 02:13:55;;;;;;;34.17;13.05;;;;;;;12.11;100.00;102066.63;4980080;28;20434;-70
2021/09/04 02:16:23;;;;;;;31.63;13.63;;;;;;;12.14;100.00;102070.13;4977324;28;20137;-70
2021/09/04 02:18:52;;;;;;;36.78;15.05;;;;;;;12.15;100.00;102062.97;4978268;28;20073;-69
2021/09/04 02:21:20;;;;;;;27.42;11.75;;;;;;;12.12;100.00;102063.00;4976910;28;20054;-68
2021/09/04 02:23:48;;;;;;;33.75;14.32;;;;;;;12.08;100.00;102064.00;4976888;28;20493;-69
2021/09/04 02:26:16;;;;;;;33.35;13.63;;;;;;;12.07;100.00;102060.44;4978681;28;20082;-68
2021/09/04 02:28:43;;;;;;;31.13;14.13;;;;;;;12.07;100.00;102064.88;4979286;28;21974;-68
2021/09/04 02:31:11;;;;;;;34.88;14.43;;;;;;;12.06;100.00;102053.31;4979836;28;20086;-69
2021/09/04 02:33:39;;;;;;;34.90;13.43;;;;;;;12.09;100.00;102060.41;4976891;28;20658;-68
2021/09/04 02:36:08;;;;;;;34.17;13.63;;;;;;;12.04;100.00;102060.50;4978906;28;20128;-68
2021/09/04 02:38:36;;;;;;;31.23;14.15;;;;;;;11.99;100.00;102043.66;4977819;28;20124;-68
2021/09/04 02:41:03;;;;;;;35.75;14.35;;;;;;;12.01;100.00;102055.19;4978260;28;20581;-68
2021/09/04 02:43:31;;;;;;;38.13;14.70;;;;;;;11.99;100.00;102053.47;4980155;28;20046;-65
2021/09/04 02:45:59;;;;;;;35.55;14.07;;;;;;;11.96;100.00;102057.06;4979223;28;20077;-69
2021/09/04 02:48:27;;;;;;;34.30;13.13;;;;;;;11.91;100.00;102051.81;4975406;28;20056;-69
2021/09/04 02:50:55;;;;;;;34.47;13.38;;;;;;;11.95;100.00;102050.84;4976313;28;20088;-68
2021/09/04 02:53:24;;;;;;;35.30;14.50;;;;;;;11.90;100.00;102042.00;4977173;28;20129;-68
2021/09/04 02:55:52;;;;;;;36.42;14.48;;;;;;;11.91;100.00;102046.44;4979375;28;20042;-68
2021/09/04 02:58:20;;;;;;;28.75;14.02;;;;;;;11.92;100.00;102045.56;4977965;28;20069;-68
2021/09/04 03:00:48;;;;;;;31.77;13.35;;;;;;;11.92;100.00;102048.22;4974059;28;20065;-68
2021/09/04 03:03:16;;;;;;;34.17;12.90;;;;;;;11.91;100.00;102043.78;4973204;28;20074;-68
2021/09/04 03:05:45;;;;;;;34.17;13.23;;;;;;;11.91;100.00;102042.91;4976526;28;20077;-69
2021/09/04 03:08:13;;;;;;;32.15;13.07;;;;;;;11.89;100.00;102047.38;4973927;28;20136;-68
2021/09/04 03:10:42;;;;;;;34.92;14.15;;;;;;;11.88;100.00;102056.28;4978814;28;20054;-68
2021/09/04 03:13:10;;;;;;;33.58;13.40;;;;;;;11.88;100.00;102048.28;4978938;28;20050;-68
2021/09/04 03:15:37;;;;;;;32.83;14.05;;;;;;;11.87;100.00;102057.22;4976955;28;20054;-68
2021/09/04 03:18:05;;;;;;;35.60;14.18;;;;;;;11.82;100.00;102051.94;4977165;28;20058;-69
2021/09/04 03:20:33;;;;;;;35.83;15.38;;;;;;;11.83;100.00;102044.78;4973612;28;20061;-68
2021/09/04 03:23:01;;;;;;;29.20;12.80;;;;;;;11.86;100.00;102042.06;4978611;28;20125;-68
2021/09/04 03:25:29;;;;;;;34.92;13.30;;;;;;;11.86;100.00;102039.41;4978123;28;20544;-68
2021/09/04 03:27:58;;;;;;;35.63;14.52;;;;;;;11.82;100.00;102043.94;4975954;28;20141;-69
2021/09/04 03:30:26;;;;;;;33.70;14.30;;;;;;;11.81;100.00;102042.16;4973985;28;20076;-69
2021/09/04 03:32:54;;;;;;;37.00;14.15;;;;;;;11.81;100.00;102036.81;4975225;28;20078;-68
2021/09/04 03:35:21;;;;;;;36.88;15.00;;;;;;;11.83;100.00;102044.78;4977042;28;20116;-68
2021/09/04 03:37:49;;;;;;;33.22;14.70;;;;;;;11.76;100.00;102036.91;4980360;28;20137;-68
2021/09/04 03:40:17;;;;;;;33.42;14.38;;;;;;;11.77;100.00;102044.00;4975239;28;20058;-68
2021/09/04 03:42:45;;;;;;;36.92;14.68;;;;;;;11.76;100.00;102034.22;4979187;28;20058;-68
2021/09/04 03:45:14;;;;;;;38.17;15.55;;;;;;;11.71;100.00;102032.53;4976632;28;20094;-68
2021/09/04 03:47:42;;;;;;;36.65;14.15;;;;;;;11.75;100.00;102032.47;4975742;28;21188;-68
2021/09/04 03:50:11;;;;;;;38.30;15.35;;;;;;;11.76;100.00;102033.31;4976640;28;20054;-68
2021/09/04 03:52:38;;;;;;;41.28;15.27;;;;;;;11.75;100.00;102037.81;4979057;28;20105;-70
2021/09/04 03:55:07;;;;;;;32.55;13.80;;;;;;;11.78;100.00;102034.19;4974062;28;20050;-68
2021/09/04 03:57:35;;;;;;;38.30;15.82;;;;;;;11.84;100.00;102038.56;4975886;28;20050;-68
2021/09/04 04:00:03;;;;;;;42.95;18.58;;;;;;;11.85;100.00;102046.56;4978123;28;20129;-68
2021/09/04 04:02:32;;;;;;;44.88;18.42;;;;;;;11.90;100.00;102043.78;4977313;28;20141;-69
2021/09/04 04:05:00;;;;;;;58.45;22.38;;;;;;;11.96;100.00;102043.69;4976644;28;20153;-68
2021/09/04 04:07:29;;;;;;;56.20;22.25;;;;;;;11.99;100.00;102046.31;4976751;28;20057;-69
2021/09/04 04:09:57;;;;;;;48.45;20.98;;;;;;;12.07;100.00;102041.72;4977281;28;20046;-69
2021/09/04 04:12:25;;;;;;;46.25;18.58;;;;;;;12.09;100.00;102039.00;4979919;28;20117;-68
2021/09/04 04:14:53;;;;;;;46.67;18.95;;;;;;;12.09;100.00;102044.38;4974754;28;20078;-68
2021/09/04 04:17:21;;;;;;;42.47;18.85;;;;;;;12.10;100.00;102048.78;4974605;28;20749;-68
2021/09/04 04:19:50;;;;;;;43.58;16.10;;;;;;;12.18;100.00;102051.31;4978319;28;20088;-68
2021/09/04 04:22:20;;;;;;;41.47;17.27;;;;;;;12.25;100.00;102052.97;4977682;28;20050;-69
2021/09/04 04:24:48;;;;;;;37.17;16.05;;;;;;;12.25;100.00;102059.19;4976978;28;20477;-69
2021/09/04 04:27:16;;;;;;;38.75;16.70;;;;;;;12.27;100.00;102046.66;4974291;28;20050;-68
2021/09/04 04:29:44;;;;;;;36.30;14.65;;;;;;;12.35;100.00;102053.66;4976313;28;20182;-68
2021/09/04 04:32:12;;;;;;;35.10;14.55;;;;;;;12.33;100.00;102046.53;4977211;28;20054;-68
2021/09/04 04:34:40;;;;;;;45.28;17.05;;;;;;;12.38;100.00;102050.91;4977664;28;20165;-68
2021/09/04 04:37:09;;;;;;;41.22;16.02;;;;;;;12.40;100.00;102054.47;4978454;28;20177;-68
2021/09/04 04:39:37;;;;;;;42.25;17.20;;;;;;;12.43;100.00;102057.03;4976546;28;20471;-68
2021/09/04 04:42:04;;;;;;;39.80;16.67;;;;;;;12.43;100.00;102057.94;4977639;28;20081;-68
2021/09/04 04:44:32;;;;;;;43.95;17.85;;;;;;;12.39;100.00;102058.03;4976314;28;20187;-68
2021/09/04 04:47:00;;;;;;;38.50;16.42;;;;;;;12.38;100.00;102054.50;4974026;28;20542;-68
2021/09/04 04:49:28;;;;;;;46.00;20.15;;;;;;;12.40;100.00;102060.69;4975041;28;20870;-68
2021/09/04 04:51:55;;;;;;;39.28;16.80;;;;;;;12.50;100.00;102054.22;4977431;28;20520;-70
2021/09/04 04:54:27;;;;;;;38.63;17.30;;;;;;;12.43;100.00;102057.03;4976368;28;20057;-70
2021/09/04 04:56:55;;;;;;;42.10;15.88;;;;;;;12.50;100.00;102059.59;4980340;28;20104;-70
2021/09/04 04:59:24;;;;;;;45.85;17.70;;;;;;;12.52;100.00;102062.22;4979465;28;20426;-70
2021/09/04 05:01:53;;;;;;;40.08;16.40;;;;;;;12.48;100.00;102052.47;4982223;28;20053;-70
2021/09/04 05:04:24;;;;;;;46.03;17.30;;;;;;;12.46;100.00;102049.88;4978793;28;20057;-69
2021/09/04 05:06:52;;;;;;;47.92;18.08;;;;;;;12.49;100.00;102065.84;4976768;28;20089;-70
2021/09/04 05:09:20;;;;;;;42.20;16.63;;;;;;;12.50;100.00;102067.63;4976180;28;20050;-70
2021/09/04 05:11:50;;;;;;;39.58;16.27;;;;;;;12.53;100.00;102061.28;4979074;28;20054;-71
2021/09/04 05:14:18;;;;;;;40.78;17.13;;;;;;;12.52;100.00;102073.81;4980324;28;20105;-71
2021/09/04 05:16:46;;;;;;;39.92;17.83;;;;;;;12.51;100.00;102076.53;4978519;28;20058;-71
2021/09/04 05:19:14;;;;;;;49.85;17.98;;;;;;;12.57;100.00;102079.09;4978761;28;20055;-68
2021/09/04 05:21:42;;;;;;;45.88;17.92;;;;;;;12.57;100.00;102087.13;4980638;28;20081;-70
2021/09/04 05:24:10;;;;;;;43.17;16.95;;;;;;;12.53;100.00;102074.69;4978835;28;20482;-69
2021/09/04 05:26:39;;;;;;;45.08;17.30;;;;;;;12.54;100.00;102073.78;4980930;28;20077;-67
2021/09/04 05:29:11;;;;;;;39.42;15.68;;;;;;;12.57;100.00;102080.88;4980770;28;20105;-66
2021/09/04 05:31:41;;;;;;;39.65;16.58;;;;;;;12.50;100.00;102082.81;4979121;28;20141;-67
2021/09/04 05:34:10;;;;;;;47.47;17.13;;;;;;;12.55;100.00;102075.56;4978952;28;20057;-66
2021/09/04 05:36:37;;;;;;;49.88;19.23;;;;;;;12.56;100.00;102079.09;4978115;28;20062;-66
2021/09/04 05:39:07;;;;;;;40.45;17.30;;;;;;;12.54;100.00;102068.44;4979802;28;20465;-66
2021/09/04 05:41:36;;;;;;;43.65;18.02;;;;;;;12.61;100.00;102071.88;4982739;28;20058;-67
2021/09/04 05:44:16;;;;;;;41.53;17.17;;;;;;;12.61;100.00;102067.38;4980983;28;20053;-68
2021/09/04 05:46:44;;;;;;;45.88;17.80;;;;;;;12.66;100.00;102070.84;4981316;28;20062;-66
2021/09/04 05:49:12;;;;;;;39.35;17.00;;;;;;;12.65;100.00;102069.09;4979689;28;20056;-68
2021/09/04 05:51:40;;;;;;;41.42;16.75;;;;;;;12.69;100.00;102072.59;4975161;28;20259;-67
2021/09/04 05:54:11;;;;;;;46.05;19.10;;;;;;;12.72;100.00;102067.16;4979122;28;20054;-68
2021/09/04 05:56:40;;;;;;;43.38;16.77;;;;;;;12.74;100.00;102067.13;4979697;28;20081;-68
2021/09/04 05:59:09;;;;;;;39.10;17.63;;;;;;;12.74;100.00;102070.69;4978000;28;20053;-65
2021/09/04 06:01:38;;;;;;;48.92;18.20;;;;;;;12.81;100.00;102069.63;4981090;28;20069;-66
2021/09/04 06:04:06;;;;;;;35.58;15.35;;;;;;;12.81;100.00;102072.31;4979890;28;20129;-68
2021/09/04 06:06:36;;;;;;;40.63;16.38;;;;;;;12.79;100.00;102073.28;4974449;28;20137;-70
2021/09/04 06:09:06;;;;;;;33.65;15.68;;;;;;;12.87;100.00;102061.47;4975367;28;20122;-72
2021/09/04 06:11:34;;;;;;;40.00;16.05;;;;;;;12.93;100.00;102063.13;4977617;28;20058;-69
2021/09/04 06:14:03;;;;;;;40.53;15.68;;;;;;;12.98;100.00;102066.59;4978063;28;20086;-69
2021/09/04 06:16:31;;;;;;;34.90;15.43;;;;;;;12.98;100.00;102058.53;4977456;28;20069;-69
2021/09/04 06:19:00;;;;;;;41.08;15.88;;;;;;;12.95;100.00;102063.09;4979734;28;20046;-69
2021/09/04 06:21:28;;;;;;;41.72;16.92;;;;;;;12.97;100.00;102066.63;4977526;28;20074;-68
2021/09/04 06:23:56;;;;;;;39.30;16.13;;;;;;;12.98;100.00;102061.22;4977959;28;20086;-68
2021/09/04 06:26:23;;;;;;;36.97;16.15;;;;;;;13.03;100.00;102066.50;4978121;28;20058;-69
2021/09/04 06:28:51;;;;;;;39.78;17.17;;;;;;;13.06;100.00;102074.47;4974758;28;20051;-70
2021/09/04 06:31:22;;;;;;;34.75;15.18;;;;;;;13.04;100.00;102077.19;4964529;28;20050;-70
2021/09/04 06:33:50;;;;;;;39.40;15.88;;;;;;;13.10;100.00;102069.91;4971550;28;20183;-70
2021/09/04 06:36:19;;;;;;;38.92;15.25;;;;;;;13.06;100.00;102077.16;4979158;28;20085;-70
2021/09/04 06:38:51;;;;;;;40.72;16.02;;;;;;;13.07;100.00;102081.56;4977985;28;20057;-70
2021/09/04 06:41:20;;;;;;;44.05;17.20;;;;;;;13.02;100.00;102078.09;4965656;28;20521;-71
2021/09/04 06:43:48;;;;;;;36.63;15.07;;;;;;;13.06;100.00;102079.81;4960009;28;20089;-67
2021/09/04 06:46:16;;;;;;;37.40;15.18;;;;;;;13.07;100.00;102079.75;4974753;28;20349;-67
2021/09/04 06:48:45;;;;;;;35.25;15.40;;;;;;;13.13;100.00;102077.84;4981407;28;20062;-68
2021/09/04 06:51:13;;;;;;;36.35;15.05;;;;;;;13.14;100.00;102076.94;4977880;28;20465;-70
2021/09/04 06:53:43;;;;;;;40.67;14.32;;;;;;;13.16;100.00;102081.38;4982228;28;20573;-71
2021/09/04 06:56:11;;;;;;;40.60;16.77;;;;;;;13.16;100.00;102075.09;4979540;28;20062;-71
2021/09/04 06:58:42;;;;;;;39.72;16.05;;;;;;;13.25;100.00;102086.50;4977860;28;20918;-70
2021/09/04 07:01:13;;;;;;;41.33;16.50;;;;;;;13.24;100.00;102083.84;4980917;28;20058;-67
2021/09/04 07:03:42;;;;;;;34.25;14.70;;;;;;;13.26;100.00;102084.69;4977194;28;20050;-68
2021/09/04 07:06:10;;;;;;;39.97;15.73;;;;;;;13.18;100.00;102084.03;4977400;28;20194;-68
2021/09/04 07:08:40;;;;;;;39.58;14.50;;;;;;;13.26;100.00;102088.28;4979540;28;20057;-67
2021/09/04 07:11:09;;;;;;;38.65;17.83;;;;;;;13.24;100.00;102087.41;4980552;28;20146;-66
2021/09/04 07:13:38;;;;;;;39.03;16.55;;;;;;;13.31;100.00;102085.47;4975428;28;20113;-67
2021/09/04 07:16:06;;;;;;;41.33;15.48;;;;;;;13.39;100.00;102085.34;4980050;28;20125;-67
2021/09/04 07:18:37;;;;;;;40.38;15.27;;;;;;;13.41;100.00;102086.19;4976825;28;20910;-67
2021/09/04 07:21:07;;;;;;;36.13;15.32;;;;;;;13.45;100.00;102087.88;4959920;28;20522;-70
2021/09/04 07:23:35;;;;;;;38.08;16.08;;;;;;;13.56;99.33;102090.28;4969233;28;20066;-69
2021/09/04 07:26:03;;;;;;;40.75;16.52;;;;;;;13.46;99.34;102089.63;4977371;28;20491;-68
2021/09/04 07:28:33;;;;;;;32.53;14.93;;;;;;;13.52;99.42;102091.25;4976535;28;20585;-70
2021/09/04 07:31:01;;;;;;;31.45;13.90;;;;;;;13.49;99.10;102094.91;4976379;28;20046;-70
2021/09/04 07:33:30;;;;;;;34.75;14.77;;;;;;;13.63;98.90;102097.25;4973644;28;20145;-69
2021/09/04 07:35:57;;;;;;;33.75;14.43;;;;;;;13.62;99.15;102092.78;4978815;28;20450;-69
2021/09/04 07:38:25;;;;;;;37.38;14.57;;;;;;;13.67;98.98;102100.75;4976112;28;20058;-67
2021/09/04 07:40:53;;;;;;;35.65;15.80;;;;;;;13.74;98.63;102089.84;4969889;28;20066;-66
2021/09/04 07:43:21;;;;;;;34.20;14.75;;;;;;;13.72;97.99;102098.81;4974230;28;20198;-66
2021/09/04 07:45:50;;;;;;;35.60;13.65;;;;;;;13.74;97.64;102091.59;4972022;28;20526;-66
2021/09/04 07:48:18;;;;;;;36.95;15.13;;;;;;;13.72;97.31;102097.00;4974626;28;20098;-67
2021/09/04 07:50:45;;;;;;;33.50;13.65;;;;;;;13.74;97.39;102088.94;4967862;28;20451;-66
2021/09/04 07:53:13;;;;;;;35.90;14.52;;;;;;;13.76;96.89;102098.72;4958914;28;20066;-67
2021/09/04 07:55:41;;;;;;;33.80;14.63;;;;;;;13.86;96.54;102094.00;4976781;28;20138;-69
2021/09/04 07:58:09;;;;;;;30.23;13.77;;;;;;;13.89;96.92;102085.84;4970219;28;20197;-68
2021/09/04 08:00:37;;;;;;;33.75;14.63;;;;;;;13.98;96.41;102090.13;4978624;28;20054;-67
2021/09/04 08:03:06;;;;;;;34.78;14.30;;;;;;;14.07;96.02;102089.84;4977613;28;20077;-67
2021/09/04 08:05:34;;;;;;;35.33;15.25;;;;;;;14.03;95.52;102093.56;4976267;28;20726;-68
2021/09/04 08:08:03;;;;;;;37.15;15.02;;;;;;;14.05;94.94;102086.34;4975826;28;20058;-66
2021/09/04 08:10:30;;;;;;;36.78;14.40;;;;;;;14.16;95.12;102089.59;4975443;28;20137;-67
2021/09/04 08:12:58;;;;;;;29.40;13.27;;;;;;;14.28;94.98;102090.19;4973043;28;20057;-67
2021/09/04 08:15:26;;;;;;;31.55;14.65;;;;;;;14.32;94.37;102084.72;4978752;28;20128;-67
2021/09/04 08:17:53;;;;;;;34.40;14.90;;;;;;;14.30;93.91;102091.94;4960163;28;20054;-68
2021/09/04 08:20:23;;;;;;;33.25;13.85;;;;;;;14.39;92.69;102090.78;4976671;28;20048;-67
2021/09/04 08:22:51;;;;;;;30.90;15.27;;;;;;;14.43;92.90;102087.06;4977520;28;20434;-66
2021/09/04 08:25:19;;;;;;;32.53;14.05;;;;;;;14.53;92.14;102085.88;4978487;28;20819;-68
2021/09/04 08:27:46;;;;;;;29.70;13.55;;;;;;;14.60;91.88;102089.31;4979047;28;20082;-69
2021/09/04 08:30:15;;;;;;;28.45;14.38;;;;;;;14.68;91.92;102098.03;4977817;28;20046;-66
2021/09/04 08:32:43;;;;;;;28.77;13.88;;;;;;;14.66;91.42;102090.94;4979379;28;20123;-66
2021/09/04 08:35:11;;;;;;;28.73;12.32;;;;;;;14.70;91.00;102089.94;4981208;28;20145;-66
2021/09/04 08:37:43;;;;;;;29.02;12.50;;;;;;;14.84;90.55;102095.75;4967848;28;20535;-66
2021/09/04 08:40:11;;;;;;;33.58;13.77;;;;;;;14.98;90.09;102091.78;4974792;28;20086;-68
2021/09/04 08:42:39;;;;;;;26.95;12.73;;;;;;;14.94;89.87;102096.38;4970703;28;20166;-69
2021/09/04 08:45:08;;;;;;;31.95;12.98;;;;;;;15.05;89.55;102093.34;4973869;28;20612;-69
2021/09/04 08:47:36;;;;;;;29.05;12.73;;;;;;;14.88;89.01;102097.44;4975601;28;20085;-69
2021/09/04 08:50:05;;;;;;;30.85;13.88;;;;;;;14.97;88.74;102093.59;4967747;28;20551;-68
2021/09/04 08:52:35;;;;;;;27.48;12.57;;;;;;;15.06;88.58;102095.13;4976598;28;20181;-69
2021/09/04 08:55:05;;;;;;;27.75;11.80;;;;;;;15.20;88.05;102105.44;4979096;28;20053;-69
2021/09/04 08:57:33;;;;;;;30.40;13.07;;;;;;;15.38;87.99;102103.97;4977786;28;20498;-70
2021/09/04 09:00:02;;;;;;;25.67;11.93;;;;;;;15.27;86.87;102098.94;4978306;28;20439;-69
2021/09/04 09:02:30;;;;;;;28.00;11.23;;;;;;;15.40;85.91;102105.69;4975779;28;20062;-69
2021/09/04 09:05:02;;;;;;;26.23;10.98;;;;;;;15.45;85.61;102113.59;4977047;28;20053;-69
2021/09/04 09:07:41;;;;;;;40.55;11.77;;;;;;;15.42;85.13;102106.50;4975948;28;20153;-68
2021/09/04 09:10:30;;;;;;;24.02;10.50;;;;;;;15.58;84.77;102106.00;4977144;28;20043;-68
2021/09/04 09:12:58;;;;;;;24.02;11.48;;;;;;;15.63;84.63;102102.25;4973320;28;20132;-69
2021/09/04 09:15:28;;;;;;;23.50;10.07;;;;;;;15.73;83.57;102101.94;4977258;28;20062;-67
2021/09/04 09:18:01;;;;;;;25.15;11.40;;;;;;;15.79;83.28;102091.00;4974109;28;20520;-65
2021/09/04 09:20:29;;;;;;;25.77;12.07;;;;;;;15.95;82.46;102096.72;4974033;28;20540;-68
2021/09/04 09:23:05;;;;;;;29.92;13.70;;;;;;;15.86;81.66;102097.94;4976578;28;20807;-68
2021/09/04 09:25:35;;;;;;;27.05;11.88;;;;;;;16.09;82.03;102090.84;4977490;28;20398;-66
2021/09/04 09:28:05;;;;;;;24.73;11.95;;;;;;;16.08;81.35;102092.69;4978211;28;20571;-69
2021/09/04 09:30:35;;;;;;;24.27;11.38;;;;;;;16.39;80.99;102095.13;4964629;28;20105;-67
2021/09/04 09:33:05;;;;;;;26.95;10.68;;;;;;;16.42;79.51;102091.47;4977019;28;20180;-65
2021/09/04 09:35:39;;;;;;;25.30;12.30;;;;;;;16.45;79.80;102091.34;4976985;28;20614;-66
2021/09/04 09:38:09;;;;;;;24.60;10.82;;;;;;;16.67;79.53;102090.53;4981272;28;20054;-66
2021/09/04 09:40:39;;;;;;;24.38;11.98;;;;;;;16.72;78.47;102085.84;4975809;28;20176;-65
2021/09/04 09:43:15;;;;;;;24.08;11.38;;;;;;;16.71;78.66;102087.66;4974987;28;20050;-66
2021/09/04 09:45:45;;;;;;;25.48;11.48;;;;;;;16.93;77.93;102076.97;4976368;28;20050;-68
2021/09/04 09:48:16;;;;;;;22.30;10.52;;;;;;;16.99;77.49;102086.63;4974715;28;20266;-69
2021/09/04 09:50:45;;;;;;;24.05;10.52;;;;;;;16.97;76.25;102089.41;4978962;28;20246;-66
2021/09/04 09:53:13;;;;;;;27.83;12.57;;;;;;;17.05;76.65;102088.22;4975953;28;20078;-65
2021/09/04 09:55:45;;;;;;;28.05;11.60;;;;;;;17.04;77.00;102086.47;4977330;28;20151;-67
2021/09/04 09:58:15;;;;;;;24.00;11.37;;;;;;;17.21;75.84;102089.34;4977172;28;20057;-66
2021/09/04 10:00:44;;;;;;;25.55;11.57;;;;;;;17.29;75.67;102083.66;4975169;28;20387;-69
2021/09/04 10:03:13;;;;;;;23.77;10.57;;;;;;;17.48;75.05;102084.66;4976408;28;20057;-68
2021/09/04 10:05:42;;;;;;;25.05;11.10;;;;;;;17.55;75.40;102083.47;4975620;28;20067;-67
2021/09/04 10:08:15;;;;;;;22.83;11.30;;;;;;;17.71;73.61;102080.13;4977541;28;20050;-68
2021/09/04 10:10:47;;;;;;;26.50;11.82;;;;;;;17.90;73.82;102075.72;4977702;28;20046;-66
2021/09/04 10:13:18;;;;;;;22.90;10.82;;;;;;;18.25;72.95;102084.09;4975728;28;20054;-67
2021/09/04 10:15:50;;;;;;;24.02;12.05;;;;;;;18.01;72.79;102077.94;4977267;28;20050;-67
2021/09/04 10:18:22;;;;;;;24.13;11.13;;;;;;;18.16;71.70;102081.78;4976808;28;20054;-66
2021/09/04 10:21:01;;;;;;;22.55;11.05;;;;;;;18.78;70.55;102068.16;4977970;28;20518;-68
2021/09/04 10:23:37;;;;;;;25.73;10.50;;;;;;;19.09;68.82;102066.75;4976904;28;20081;-68
2021/09/04 10:26:29;;;;;;;22.67;10.70;;;;;;;19.16;67.92;102057.41;4972554;28;20090;-67
2021/09/04 10:29:09;;;;;;;23.05;10.73;;;;;;;19.50;67.42;102066.53;4965265;28;20578;-67
2021/09/04 10:31:45;;;;;;;24.95;11.63;;;;;;;19.31;67.63;102067.47;4975245;28;20669;-69
2021/09/04 10:34:15;;;;;;;23.23;10.68;;;;;;;19.55;67.11;102054.53;4963283;28;20046;-68
2021/09/04 10:37:05;;;;;;;22.10;11.57;;;;;;;19.62;66.74;102057.78;4969190;28;20050;-67
2021/09/04 10:39:51;;;;;;;20.83;10.65;;;;;;;20.15;65.30;102047.84;4973773;28;20058;-67
2021/09/04 10:42:24;;;;;;;23.95;11.57;;;;;;;20.34;64.60;102062.16;4972463;28;20049;-68
2021/09/04 10:44:59;;;;;;;26.38;10.50;;;;;;;20.41;63.55;102048.28;4980719;28;20057;-67
2021/09/04 10:47:28;;;;;;;24.63;11.85;;;;;;;20.41;63.81;102046.44;4978875;28;20053;-68
2021/09/04 10:50:13;;;;;;;24.35;11.32;;;;;;;20.57;63.49;102045.59;4961983;28;20054;-67
2021/09/04 10:53:05;;;;;;;22.98;10.88;;;;;;;20.12;64.12;102037.19;4972388;28;20077;-67
2021/09/04 10:55:35;;;;;;;21.83;11.07;;;;;;;20.38;63.58;102041.22;4972815;28;20311;-68
2021/09/04 10:58:07;;;;;;;21.98;11.10;;;;;;;20.57;63.15;102041.06;4974794;28;20093;-69
2021/09/04 11:00:43;;;;;;;20.95;10.35;;;;;;;20.62;63.14;102047.13;4969000;28;20051;-69
2021/09/04 11:03:12;;;;;;;22.15;11.25;;;;;;;20.37;63.27;102050.28;4975322;28;20545;-68
2021/09/04 11:05:47;;;;;;;22.73;12.45;;;;;;;20.48;63.61;102045.16;4977644;28;20159;-68
2021/09/04 11:08:34;;;;;;;21.98;11.30;;;;;;;21.12;61.50;102041.66;4977964;28;20077;-69
2021/09/04 11:11:18;;;;;;;24.48;12.55;;;;;;;20.85;61.90;102044.97;4977220;28;20064;-69
2021/09/04 11:13:51;;;;;;;;;;;;;;;20.92;61.70;102049.09;4975956;28;20057;-70